Time;durP1;ratioP1;P1;durP2;ratioP2;P2;SDS_P1;SDS_P2;PMS_P1;PMS_P2;Temp;Humidity;BMP_temperature;BMP_pressure;BME280_temperature;BME280_humidity;BME280_pressure;Samples;Min_cycle;Max_cycle;Signal;HPM_P1;HPM_P2
2020/12/21 00:02:02;;;;;;;16.45;12.88;;;;;;;;;;5092028;28;20254;-78
2020/12/21 00:04:28;;;;;;;14.98;11.90;;;;;;;;;;5087310;28;20274;-78
2020/12/21 00:06:54;;;;;;;16.05;13.32;;;;;;;;;;5075969;28;20192;-79
2020/12/21 00:09:21;;;;;;;16.63;12.18;;;;;;;;;;5076161;28;20210;-80
2020/12/21 00:11:47;;;;;;;15.02;12.95;;;;;;;;;;5080159;28;20210;-78
2020/12/21 00:14:14;;;;;;;15.13;12.10;;;;;;;;;;5088190;28;20179;-81
2020/12/21 00:16:44;;;;;;;13.15;11.23;;;;;;;;;;5085974;28;20653;-80
2020/12/21 00:19:10;;;;;;;14.60;12.43;;;;;;;;;;5074352;28;20207;-81
2020/12/21 00:21:37;;;;;;;14.23;11.80;;;;;;;;;;5092243;28;20183;-79
2020/12/21 00:24:03;;;;;;;14.32;11.20;;;;;;;;;;5091847;28;20195;-80
2020/12/21 00:26:29;;;;;;;17.17;11.48;;;;;;;;;;5078822;28;20841;-80
2020/12/21 00:28:57;;;;;;;17.63;12.30;;;;;;;;;;5090610;28;20249;-80
2020/12/21 00:31:26;;;;;;;17.88;11.82;;;;;;;;;;5085287;28;20207;-75
2020/12/21 00:33:52;;;;;;;18.67;11.20;;;;;;;;;;5079831;28;20199;-77
2020/12/21 00:36:19;;;;;;;16.08;11.88;;;;;;;;;;5079708;28;20230;-73
2020/12/21 00:38:45;;;;;;;15.15;11.45;;;;;;;;;;5079707;28;20196;-76
2020/12/21 00:41:15;;;;;;;14.70;11.75;;;;;;;;;;5071608;28;20215;-74
2020/12/21 00:43:42;;;;;;;19.73;12.10;;;;;;;;;;5071192;28;20249;-74
2020/12/21 00:46:12;;;;;;;12.90;10.85;;;;;;;;;;5075888;28;20573;-74
2020/12/21 00:48:38;;;;;;;17.10;11.50;;;;;;;;;;5072968;28;20187;-77
2020/12/21 00:51:04;;;;;;;14.45;11.70;;;;;;;;;;5073652;28;20203;-80
2020/12/21 00:53:30;;;;;;;15.88;10.63;;;;;;;;;;5072173;28;20187;-74
2020/12/21 00:55:56;;;;;;;16.70;10.52;;;;;;;;;;5091592;28;20171;-73
2020/12/21 00:58:22;;;;;;;17.58;11.27;;;;;;;;;;5091499;28;20203;-76
2020/12/21 01:00:48;;;;;;;18.17;11.75;;;;;;;;;;5076796;28;20211;-78
2020/12/21 01:03:15;;;;;;;11.68;10.40;;;;;;;;;;5071920;28;20222;-76
2020/12/21 01:05:41;;;;;;;15.95;10.45;;;;;;;;;;5080806;28;20187;-75
2020/12/21 01:08:07;;;;;;;16.48;9.95;;;;;;;;;;5078370;28;20237;-73
2020/12/21 01:10:33;;;;;;;12.43;8.80;;;;;;;;;;5102267;28;20202;-77
2020/12/21 01:12:59;;;;;;;13.15;9.35;;;;;;;;;;5088417;28;20187;-74
2020/12/21 01:15:25;;;;;;;12.70;9.18;;;;;;;;;;5090830;28;20175;-74
2020/12/21 01:17:51;;;;;;;12.88;8.85;;;;;;;;;;5090949;28;20214;-75
2020/12/21 01:20:17;;;;;;;11.45;9.10;;;;;;;;;;5091862;28;20199;-75
2020/12/21 01:22:43;;;;;;;11.65;9.55;;;;;;;;;;5087722;28;20175;-73
2020/12/21 01:25:09;;;;;;;13.77;9.15;;;;;;;;;;5087779;28;20210;-77
2020/12/21 01:27:36;;;;;;;12.35;9.15;;;;;;;;;;5086942;28;20241;-77
2020/12/21 01:30:02;;;;;;;13.70;8.90;;;;;;;;;;5077586;28;20526;-76
2020/12/21 01:32:28;;;;;;;12.90;9.68;;;;;;;;;;5088559;28;20183;-74
2020/12/21 01:34:54;;;;;;;16.52;8.55;;;;;;;;;;5094983;28;20268;-75
2020/12/21 01:37:20;;;;;;;10.10;8.90;;;;;;;;;;5095007;28;20571;-74
2020/12/21 01:39:49;;;;;;;12.88;9.15;;;;;;;;;;5094042;28;20211;-74
2020/12/21 01:42:18;;;;;;;14.40;9.30;;;;;;;;;;5088172;28;20830;-73
2020/12/21 01:44:46;;;;;;;17.40;8.85;;;;;;;;;;5096633;28;20228;-73
2020/12/21 01:47:12;;;;;;;10.57;8.57;;;;;;;;;;5095786;28;20253;-76
2020/12/21 01:49:39;;;;;;;12.25;8.27;;;;;;;;;;5095576;28;20187;-72
2020/12/21 01:52:06;;;;;;;11.82;7.75;;;;;;;;;;5075969;28;20208;-74
2020/12/21 01:54:32;;;;;;;13.70;8.48;;;;;;;;;;5079487;28;20549;-77
2020/12/21 01:56:58;;;;;;;9.27;8.13;;;;;;;;;;5075225;28;20621;-75
2020/12/21 01:59:25;;;;;;;10.95;7.80;;;;;;;;;;5076821;28;20275;-73
2020/12/21 02:01:52;;;;;;;9.75;7.57;;;;;;;;;;5090863;28;20186;-75
2020/12/21 02:04:18;;;;;;;7.82;7.03;;;;;;;;;;5097580;28;20214;-74
2020/12/21 02:06:44;;;;;;;11.82;7.10;;;;;;;;;;5097495;28;20176;-74
2020/12/21 02:09:10;;;;;;;10.75;7.25;;;;;;;;;;5093413;28;20203;-74
2020/12/21 02:11:42;;;;;;;10.75;7.38;;;;;;;;;;5073457;28;20200;-73
2020/12/21 02:14:08;;;;;;;13.70;7.03;;;;;;;;;;5087931;28;20262;-75
2020/12/21 02:16:35;;;;;;;10.75;7.22;;;;;;;;;;5093978;28;20172;-73
2020/12/21 02:19:01;;;;;;;10.52;7.53;;;;;;;;;;5090874;28;20199;-76
2020/12/21 02:21:27;;;;;;;11.48;8.02;;;;;;;;;;5086688;28;20582;-75
2020/12/21 02:23:53;;;;;;;14.40;7.57;;;;;;;;;;5092819;28;20198;-73
2020/12/21 02:26:19;;;;;;;11.82;7.10;;;;;;;;;;5093689;28;20226;-77
2020/12/21 02:28:50;;;;;;;9.20;6.95;;;;;;;;;;5090165;28;20249;-73
2020/12/21 02:31:17;;;;;;;11.07;6.85;;;;;;;;;;5078032;28;20200;-74
2020/12/21 02:33:43;;;;;;;8.98;7.95;;;;;;;;;;5088567;28;20184;-75
2020/12/21 02:36:09;;;;;;;11.32;7.10;;;;;;;;;;5073317;28;20208;-74
2020/12/21 02:38:35;;;;;;;11.15;8.20;;;;;;;;;;5087015;28;20198;-75
2020/12/21 02:41:01;;;;;;;10.30;8.13;;;;;;;;;;5083566;28;20545;-75
2020/12/21 02:43:27;;;;;;;11.10;8.52;;;;;;;;;;5084321;28;20175;-77
2020/12/21 02:45:53;;;;;;;15.75;8.43;;;;;;;;;;5092656;28;20183;-75
2020/12/21 02:48:19;;;;;;;16.85;8.35;;;;;;;;;;5092786;28;20179;-76
2020/12/21 02:50:45;;;;;;;12.82;8.70;;;;;;;;;;5093006;28;20207;-75
2020/12/21 02:53:15;;;;;;;16.23;8.43;;;;;;;;;;5086934;28;20180;-76
2020/12/21 02:55:41;;;;;;;17.38;8.32;;;;;;;;;;5092978;28;20520;-73
2020/12/21 02:58:07;;;;;;;12.30;7.80;;;;;;;;;;5091715;28;20175;-76
2020/12/21 03:00:34;;;;;;;10.52;8.00;;;;;;;;;;5080484;28;20286;-76
2020/12/21 03:03:00;;;;;;;11.80;8.45;;;;;;;;;;5092916;28;20600;-76
2020/12/21 03:05:26;;;;;;;10.85;7.93;;;;;;;;;;5092930;28;20612;-76
2020/12/21 03:07:52;;;;;;;13.98;9.10;;;;;;;;;;5091885;28;20222;-74
2020/12/21 03:10:18;;;;;;;14.85;8.40;;;;;;;;;;5083576;28;20205;-74
2020/12/21 03:12:44;;;;;;;12.45;8.88;;;;;;;;;;5092663;28;20167;-74
2020/12/21 03:15:10;;;;;;;14.32;8.63;;;;;;;;;;5092594;28;20656;-76
2020/12/21 03:17:36;;;;;;;10.38;8.07;;;;;;;;;;5088535;28;20517;-75
2020/12/21 03:20:04;;;;;;;12.10;8.50;;;;;;;;;;5073967;28;20228;-75
2020/12/21 03:22:30;;;;;;;14.25;8.75;;;;;;;;;;5092519;28;20171;-73
2020/12/21 03:24:57;;;;;;;13.55;8.50;;;;;;;;;;5072247;28;20534;-75
2020/12/21 03:27:23;;;;;;;16.98;9.80;;;;;;;;;;5081840;28;20186;-72
2020/12/21 03:29:49;;;;;;;14.52;9.50;;;;;;;;;;5083857;28;20195;-74
2020/12/21 03:32:15;;;;;;;14.70;8.80;;;;;;;;;;5091749;28;20174;-76
2020/12/21 03:34:41;;;;;;;14.23;8.68;;;;;;;;;;5096393;28;20186;-73
2020/12/21 03:37:08;;;;;;;14.13;9.10;;;;;;;;;;5095740;28;20168;-74
2020/12/21 03:39:34;;;;;;;15.07;8.88;;;;;;;;;;5088309;28;20598;-75
2020/12/21 03:42:00;;;;;;;15.40;9.88;;;;;;;;;;5096203;28;20583;-74
2020/12/21 03:44:26;;;;;;;19.73;10.13;;;;;;;;;;5096302;28;20179;-72
2020/12/21 03:46:52;;;;;;;18.17;9.00;;;;;;;;;;5096286;28;20191;-75
2020/12/21 03:49:18;;;;;;;15.65;10.15;;;;;;;;;;5096367;28;20199;-75
2020/12/21 03:51:45;;;;;;;13.95;9.75;;;;;;;;;;5096152;28;20199;-74
2020/12/21 03:54:11;;;;;;;15.65;9.38;;;;;;;;;;5095812;28;20175;-75
2020/12/21 03:56:38;;;;;;;13.18;9.52;;;;;;;;;;5095460;28;20217;-76
2020/12/21 03:59:04;;;;;;;14.25;9.98;;;;;;;;;;5080170;28;20193;-75
2020/12/21 04:01:30;;;;;;;13.00;9.95;;;;;;;;;;5095635;28;20183;-75
2020/12/21 04:03:56;;;;;;;13.13;9.00;;;;;;;;;;5087589;28;20176;-73
2020/12/21 04:06:22;;;;;;;15.30;10.02;;;;;;;;;;5088598;28;20183;-75
2020/12/21 04:08:48;;;;;;;15.85;10.70;;;;;;;;;;5089139;28;20572;-74
2020/12/21 04:11:14;;;;;;;16.60;10.05;;;;;;;;;;5096126;28;20304;-74
2020/12/21 04:13:40;;;;;;;20.15;9.50;;;;;;;;;;5094709;28;20180;-77
2020/12/21 04:16:06;;;;;;;16.52;10.43;;;;;;;;;;5095874;28;20175;-75
2020/12/21 04:18:32;;;;;;;13.98;10.70;;;;;;;;;;5095587;28;20168;-75
2020/12/21 04:20:58;;;;;;;14.10;11.07;;;;;;;;;;5095418;28;20207;-75
2020/12/21 04:23:24;;;;;;;19.15;11.45;;;;;;;;;;5095922;28;20175;-75
2020/12/21 04:25:50;;;;;;;17.02;11.50;;;;;;;;;;5093788;28;20167;-73
2020/12/21 04:28:16;;;;;;;14.23;10.32;;;;;;;;;;5095502;28;20183;-75
2020/12/21 04:30:42;;;;;;;12.35;10.30;;;;;;;;;;5094905;28;20299;-76
2020/12/21 04:33:08;;;;;;;14.90;9.98;;;;;;;;;;5095583;28;20178;-74
2020/12/21 04:35:35;;;;;;;13.88;9.40;;;;;;;;;;5095292;28;20209;-75
2020/12/21 04:38:01;;;;;;;14.85;9.60;;;;;;;;;;5095390;28;20175;-74
2020/12/21 04:40:27;;;;;;;10.73;8.85;;;;;;;;;;5095067;28;20203;-76
2020/12/21 04:42:53;;;;;;;13.93;9.57;;;;;;;;;;5095123;28;20207;-75
2020/12/21 04:45:20;;;;;;;14.95;9.57;;;;;;;;;;5083481;28;20184;-74
2020/12/21 04:47:47;;;;;;;14.73;10.10;;;;;;;;;;5079225;28;20192;-74
2020/12/21 04:50:17;;;;;;;14.75;9.63;;;;;;;;;;5075041;28;20218;-75
2020/12/21 04:52:52;;;;;;;13.63;9.82;;;;;;;;;;5077577;28;20271;-75
2020/12/21 04:55:21;;;;;;;12.75;9.90;;;;;;;;;;5094810;28;20175;-75
2020/12/21 04:57:54;;;;;;;13.85;10.27;;;;;;;;;;5088161;28;20529;-76
2020/12/21 05:00:20;;;;;;;13.00;9.15;;;;;;;;;;5088136;28;20199;-77
2020/12/21 05:02:46;;;;;;;19.35;9.45;;;;;;;;;;5090146;28;20529;-76
2020/12/21 05:05:12;;;;;;;15.07;9.77;;;;;;;;;;5095068;28;20255;-74
2020/12/21 05:07:38;;;;;;;12.40;9.90;;;;;;;;;;5094687;28;20529;-74
2020/12/21 05:10:10;;;;;;;22.45;10.30;;;;;;;;;;5090495;28;20544;-75
2020/12/21 05:12:36;;;;;;;14.27;9.30;;;;;;;;;;5094566;28;20286;-72
2020/12/21 05:15:12;;;;;;;12.80;8.65;;;;;;;;;;5093914;28;20184;-75
2020/12/21 05:17:38;;;;;;;14.52;10.18;;;;;;;;;;5081595;28;20198;-75
2020/12/21 05:20:04;;;;;;;15.10;9.95;;;;;;;;;;5094040;28;20217;-74
2020/12/21 05:22:30;;;;;;;15.85;10.73;;;;;;;;;;5094346;28;20183;-76
2020/12/21 05:25:04;;;;;;;17.30;9.88;;;;;;;;;;5092939;28;20186;-76
2020/12/21 05:27:30;;;;;;;13.77;10.07;;;;;;;;;;5076252;28;20259;-75
2020/12/21 05:29:56;;;;;;;14.85;9.98;;;;;;;;;;5078952;28;20246;-74
2020/12/21 05:32:23;;;;;;;15.68;10.93;;;;;;;;;;5086768;28;20175;-75
2020/12/21 05:34:49;;;;;;;15.43;10.10;;;;;;;;;;5094323;28;20175;-76
2020/12/21 05:37:19;;;;;;;12.75;10.75;;;;;;;;;;5085379;28;20206;-76
2020/12/21 05:39:48;;;;;;;16.10;10.57;;;;;;;;;;5093785;28;20252;-76
2020/12/21 05:42:14;;;;;;;13.45;10.65;;;;;;;;;;5093729;28;20525;-77
2020/12/21 05:44:50;;;;;;;18.80;11.27;;;;;;;;;;5085539;28;20206;-75
2020/12/21 05:47:16;;;;;;;21.35;11.18;;;;;;;;;;5075958;28;20266;-76
2020/12/21 05:49:50;;;;;;;16.58;11.45;;;;;;;;;;5094235;28;20196;-73
2020/12/21 05:52:24;;;;;;;17.95;11.48;;;;;;;;;;5090084;28;20203;-77
2020/12/21 05:54:51;;;;;;;16.85;11.32;;;;;;;;;;5073804;28;20207;-75
2020/12/21 05:57:18;;;;;;;13.13;9.73;;;;;;;;;;5078623;28;20207;-74
2020/12/21 05:59:44;;;;;;;15.77;11.45;;;;;;;;;;5073874;28;20192;-77
2020/12/21 06:02:12;;;;;;;16.75;10.93;;;;;;;;;;5085819;28;20184;-76
2020/12/21 06:04:39;;;;;;;18.40;10.48;;;;;;;;;;5073382;28;20189;-76
2020/12/21 06:07:11;;;;;;;19.55;11.10;;;;;;;;;;5089202;28;20187;-75
2020/12/21 06:09:37;;;;;;;19.30;11.82;;;;;;;;;;5089331;28;20222;-76
2020/12/21 06:12:03;;;;;;;15.10;11.65;;;;;;;;;;5073341;28;20203;-73
2020/12/21 06:14:33;;;;;;;16.20;11.13;;;;;;;;;;5089929;28;20233;-75
2020/12/21 06:16:59;;;;;;;16.50;10.77;;;;;;;;;;5093429;28;20671;-73
2020/12/21 06:19:25;;;;;;;22.17;11.98;;;;;;;;;;5090613;28;20240;-75
2020/12/21 06:21:53;;;;;;;15.88;10.55;;;;;;;;;;5093130;28;20176;-74
2020/12/21 06:24:19;;;;;;;20.02;11.60;;;;;;;;;;5090109;28;20196;-75
2020/12/21 06:26:45;;;;;;;16.45;10.85;;;;;;;;;;5077274;28;20216;-74
2020/12/21 06:29:15;;;;;;;16.60;10.20;;;;;;;;;;5085565;28;21996;-74
2020/12/21 06:31:45;;;;;;;19.13;9.90;;;;;;;;;;5093172;28;20207;-76
2020/12/21 06:34:13;;;;;;;13.30;10.60;;;;;;;;;;5090606;28;20267;-74
2020/12/21 06:36:40;;;;;;;15.07;10.90;;;;;;;;;;5088608;28;20183;-77
2020/12/21 06:39:06;;;;;;;19.45;9.60;;;;;;;;;;5087409;28;20192;-76
2020/12/21 06:41:33;;;;;;;14.63;9.63;;;;;;;;;;5071645;28;20191;-74
2020/12/21 06:44:00;;;;;;;18.38;10.60;;;;;;;;;;5071418;28;20249;-74
2020/12/21 06:46:27;;;;;;;15.70;10.25;;;;;;;;;;5088173;28;20187;-73
2020/12/21 06:49:13;;;;;;;17.13;10.20;;;;;;;;;;5086528;28;20226;-76
2020/12/21 06:51:43;;;;;;;19.55;10.57;;;;;;;;;;5074488;28;20214;-76
2020/12/21 06:54:10;;;;;;;18.25;10.77;;;;;;;;;;5072812;28;20292;-74
2020/12/21 06:56:36;;;;;;;14.77;9.52;;;;;;;;;;5074485;28;20187;-74
2020/12/21 06:59:02;;;;;;;16.13;9.65;;;;;;;;;;5093200;28;20198;-76
2020/12/21 07:01:29;;;;;;;17.98;9.90;;;;;;;;;;5092952;28;20652;-77
2020/12/21 07:03:55;;;;;;;20.20;10.73;;;;;;;;;;5093954;28;20198;-75
2020/12/21 07:06:21;;;;;;;18.30;10.50;;;;;;;;;;5095330;28;20176;-73
2020/12/21 07:08:49;;;;;;;15.70;10.73;;;;;;;;;;5089800;28;20301;-76
2020/12/21 07:11:16;;;;;;;15.32;10.27;;;;;;;;;;5096903;28;20198;-76
2020/12/21 07:13:42;;;;;;;15.50;11.68;;;;;;;;;;5096767;28;20201;-76
2020/12/21 07:16:08;;;;;;;16.23;10.40;;;;;;;;;;5092874;28;20178;-75
2020/12/21 07:18:34;;;;;;;15.30;10.15;;;;;;;;;;5085077;28;20172;-76
2020/12/21 07:21:00;;;;;;;18.95;11.60;;;;;;;;;;5081645;28;20195;-76
2020/12/21 07:23:27;;;;;;;17.23;11.70;;;;;;;;;;5085063;28;20619;-77
2020/12/21 07:25:53;;;;;;;13.10;10.23;;;;;;;;;;5076220;28;20287;-76
2020/12/21 07:28:23;;;;;;;16.60;10.23;;;;;;;;;;5076696;28;20179;-77
2020/12/21 07:30:49;;;;;;;18.08;10.05;;;;;;;;;;5076367;28;20201;-74
2020/12/21 07:33:15;;;;;;;17.40;9.88;;;;;;;;;;5077426;28;20180;-74
2020/12/21 07:35:41;;;;;;;14.73;10.55;;;;;;;;;;5096473;28;20178;-75
2020/12/21 07:38:13;;;;;;;15.05;10.07;;;;;;;;;;5096660;28;20199;-73
2020/12/21 07:40:45;;;;;;;14.75;9.38;;;;;;;;;;5096126;28;20203;-78
2020/12/21 07:43:17;;;;;;;15.40;10.80;;;;;;;;;;5095784;28;20636;-72
2020/12/21 07:45:46;;;;;;;16.33;9.65;;;;;;;;;;5096276;28;20267;-77
2020/12/21 07:48:13;;;;;;;17.65;10.23;;;;;;;;;;5084062;28;20175;-74
2020/12/21 07:50:40;;;;;;;14.43;9.15;;;;;;;;;;5086815;28;20241;-75
2020/12/21 07:53:07;;;;;;;13.77;9.95;;;;;;;;;;5078625;28;20175;-75
2020/12/21 07:55:33;;;;;;;14.60;10.02;;;;;;;;;;5077827;28;20183;-75
2020/12/21 07:57:59;;;;;;;19.48;8.95;;;;;;;;;;5078362;28;20188;-76
2020/12/21 08:00:26;;;;;;;14.57;9.40;;;;;;;;;;5090961;28;20214;-76
2020/12/21 08:03:00;;;;;;;14.52;8.93;;;;;;;;;;5080679;28;20513;-75
2020/12/21 08:05:26;;;;;;;12.80;7.90;;;;;;;;;;5092456;28;20186;-75
2020/12/21 08:07:53;;;;;;;15.50;9.10;;;;;;;;;;5088472;28;20196;-75
2020/12/21 08:10:20;;;;;;;11.55;8.57;;;;;;;;;;5075080;28;20565;-76
2020/12/21 08:12:46;;;;;;;13.68;8.77;;;;;;;;;;5083865;28;20277;-76
2020/12/21 08:15:12;;;;;;;21.40;9.30;;;;;;;;;;5092332;28;20179;-76
2020/12/21 08:17:38;;;;;;;14.07;8.68;;;;;;;;;;5088349;28;20189;-74
2020/12/21 08:20:06;;;;;;;19.92;8.90;;;;;;;;;;5091747;28;20195;-75
2020/12/21 08:22:32;;;;;;;16.67;9.63;;;;;;;;;;5073956;28;20683;-75
2020/12/21 08:25:02;;;;;;;13.38;8.60;;;;;;;;;;5081859;28;20183;-75
2020/12/21 08:27:28;;;;;;;12.60;7.80;;;;;;;;;;5073374;28;20183;-76
2020/12/21 08:30:06;;;;;;;15.70;9.65;;;;;;;;;;5080454;28;20908;-75
2020/12/21 08:32:32;;;;;;;11.63;8.45;;;;;;;;;;5073456;28;20235;-76
2020/12/21 08:34:58;;;;;;;14.73;7.90;;;;;;;;;;5081207;28;20180;-73
2020/12/21 08:37:25;;;;;;;18.13;8.73;;;;;;;;;;5072826;28;20224;-78
2020/12/21 08:39:51;;;;;;;12.80;7.65;;;;;;;;;;5079947;28;20291;-76
2020/12/21 08:42:17;;;;;;;14.75;8.90;;;;;;;;;;5078741;28;20663;-73
2020/12/21 08:44:43;;;;;;;13.98;7.38;;;;;;;;;;5088219;28;20661;-76
2020/12/21 08:47:09;;;;;;;17.45;6.68;;;;;;;;;;5090582;28;20654;-75
2020/12/21 08:49:35;;;;;;;19.08;7.50;;;;;;;;;;5091027;28;20207;-73
2020/12/21 08:52:03;;;;;;;12.50;7.07;;;;;;;;;;5083405;28;20262;-75
2020/12/21 08:54:30;;;;;;;12.00;7.68;;;;;;;;;;5085985;28;20197;-73
2020/12/21 08:56:59;;;;;;;8.93;6.50;;;;;;;;;;5090949;28;20201;-74
2020/12/21 08:59:25;;;;;;;14.70;8.02;;;;;;;;;;5091248;28;20198;-77
2020/12/21 09:01:51;;;;;;;16.45;7.47;;;;;;;;;;5084677;28;20191;-75
2020/12/21 09:04:18;;;;;;;10.77;6.90;;;;;;;;;;5085012;28;20191;-74
2020/12/21 09:06:44;;;;;;;6.20;5.32;;;;;;;;;;5091006;28;20179;-76
2020/12/21 09:09:10;;;;;;;9.65;6.15;;;;;;;;;;5092446;28;20199;-75
2020/12/21 09:11:36;;;;;;;12.50;7.43;;;;;;;;;;5092293;28;20260;-75
2020/12/21 09:14:03;;;;;;;9.27;5.25;;;;;;;;;;5089299;28;20676;-76
2020/12/21 09:16:30;;;;;;;9.38;5.75;;;;;;;;;;5088872;28;20190;-75
2020/12/21 09:18:56;;;;;;;9.02;5.20;;;;;;;;;;5088825;28;20175;-76
2020/12/21 09:21:23;;;;;;;8.75;5.50;;;;;;;;;;5090577;28;20224;-77
2020/12/21 09:23:50;;;;;;;9.02;4.82;;;;;;;;;;5074115;28;20208;-77
2020/12/21 09:26:16;;;;;;;10.35;4.40;;;;;;;;;;5077299;28;20197;-73
2020/12/21 09:28:43;;;;;;;7.10;4.43;;;;;;;;;;5084895;28;20666;-76
2020/12/21 09:31:10;;;;;;;7.50;4.90;;;;;;;;;;5079825;28;20216;-75
2020/12/21 09:33:36;;;;;;;11.30;4.88;;;;;;;;;;5089853;28;20180;-75
2020/12/21 09:36:02;;;;;;;8.82;4.80;;;;;;;;;;5089892;28;20171;-74
2020/12/21 09:38:28;;;;;;;8.60;4.45;;;;;;;;;;5087835;28;20182;-74
2020/12/21 09:40:54;;;;;;;7.03;4.38;;;;;;;;;;5084260;28;20568;-76
2020/12/21 09:43:20;;;;;;;10.73;4.60;;;;;;;;;;5089955;28;20593;-76
2020/12/21 09:45:46;;;;;;;8.90;5.40;;;;;;;;;;5080634;28;20603;-76
2020/12/21 09:48:12;;;;;;;8.68;3.83;;;;;;;;;;5085563;28;21056;-77
2020/12/21 09:50:38;;;;;;;8.02;4.30;;;;;;;;;;5073236;28;20496;-76
2020/12/21 09:53:04;;;;;;;6.75;4.80;;;;;;;;;;5089958;28;20183;-75
2020/12/21 09:55:30;;;;;;;6.63;3.90;;;;;;;;;;5080287;28;20180;-76
2020/12/21 09:57:57;;;;;;;9.48;5.50;;;;;;;;;;5069771;28;20204;-77
2020/12/21 10:00:23;;;;;;;7.40;4.80;;;;;;;;;;5079408;28;20286;-76
2020/12/21 10:02:49;;;;;;;6.75;4.00;;;;;;;;;;5085434;28;20305;-73
2020/12/21 10:05:15;;;;;;;5.93;3.60;;;;;;;;;;5087946;28;20262;-77
2020/12/21 10:07:41;;;;;;;8.73;4.10;;;;;;;;;;5075706;28;20202;-78
2020/12/21 10:10:07;;;;;;;9.30;4.15;;;;;;;;;;5087375;28;20206;-74
2020/12/21 10:12:34;;;;;;;7.80;4.10;;;;;;;;;;5089379;28;20175;-77
2020/12/21 10:15:00;;;;;;;11.05;4.63;;;;;;;;;;5082998;28;20175;-73
2020/12/21 10:17:26;;;;;;;5.47;3.90;;;;;;;;;;5089908;28;20241;-76
2020/12/21 10:19:52;;;;;;;7.43;4.10;;;;;;;;;;5079000;28;20203;-75
2020/12/21 10:22:18;;;;;;;9.88;4.30;;;;;;;;;;5091172;28;20183;-77
2020/12/21 10:24:44;;;;;;;7.20;4.53;;;;;;;;;;5085986;28;20202;-76
2020/12/21 10:27:10;;;;;;;7.47;3.65;;;;;;;;;;5075668;28;20184;-74
2020/12/21 10:29:36;;;;;;;7.57;3.80;;;;;;;;;;5090588;28;20237;-73
2020/12/21 10:32:02;;;;;;;7.78;3.80;;;;;;;;;;5086642;28;20204;-75
2020/12/21 10:34:28;;;;;;;6.65;4.20;;;;;;;;;;5084243;28;20876;-75
2020/12/21 10:36:54;;;;;;;11.38;3.47;;;;;;;;;;5088719;28;20248;-74
2020/12/21 10:39:20;;;;;;;7.40;4.00;;;;;;;;;;5074511;28;20805;-74
2020/12/21 10:41:47;;;;;;;7.07;4.40;;;;;;;;;;5077691;28;20255;-75
2020/12/21 10:44:14;;;;;;;8.63;4.53;;;;;;;;;;5090124;28;20176;-75
2020/12/21 10:46:40;;;;;;;6.38;4.00;;;;;;;;;;5091791;28;20290;-73
2020/12/21 10:49:06;;;;;;;8.43;4.38;;;;;;;;;;5091690;28;20195;-74
2020/12/21 10:51:33;;;;;;;6.03;3.63;;;;;;;;;;5090922;28;20211;-75
2020/12/21 10:53:59;;;;;;;10.23;4.07;;;;;;;;;;5084711;28;20285;-76
2020/12/21 10:56:25;;;;;;;7.15;4.13;;;;;;;;;;5089643;28;20191;-75
2020/12/21 10:58:51;;;;;;;6.95;3.83;;;;;;;;;;5085318;28;20184;-75
2020/12/21 11:01:18;;;;;;;5.50;3.70;;;;;;;;;;5069361;28;20931;-76
2020/12/21 11:03:44;;;;;;;7.80;3.60;;;;;;;;;;5076431;28;20685;-76
2020/12/21 11:06:10;;;;;;;7.85;5.97;;;;;;;;;;5087498;28;20232;-75
2020/12/21 11:08:37;;;;;;;11.57;3.70;;;;;;;;;;5072292;28;20232;-77
2020/12/21 11:11:03;;;;;;;9.20;3.92;;;;;;;;;;5088603;28;20215;-77
2020/12/21 11:13:29;;;;;;;6.20;3.22;;;;;;;;;;5088111;28;20197;-77
2020/12/21 11:15:55;;;;;;;4.05;3.20;;;;;;;;;;5087669;28;20192;-75
2020/12/21 11:18:21;;;;;;;6.93;3.28;;;;;;;;;;5088876;28;20258;-73
2020/12/21 11:20:47;;;;;;;6.60;3.75;;;;;;;;;;5085616;28;20207;-75
2020/12/21 11:23:14;;;;;;;6.20;2.70;;;;;;;;;;5089834;28;20194;-73
2020/12/21 11:25:40;;;;;;;5.47;3.33;;;;;;;;;;5088769;28;20187;-76
2020/12/21 11:28:07;;;;;;;8.27;3.75;;;;;;;;;;5078570;28;20266;-74
2020/12/21 11:30:33;;;;;;;5.72;3.20;;;;;;;;;;5068906;28;20232;-77
2020/12/21 11:33:00;;;;;;;7.22;3.28;;;;;;;;;;5086514;28;20656;-77
2020/12/21 11:35:26;;;;;;;6.43;3.00;;;;;;;;;;5087922;28;20300;-75
2020/12/21 11:37:53;;;;;;;4.47;2.97;;;;;;;;;;5089450;28;20517;-76
2020/12/21 11:40:19;;;;;;;4.40;2.92;;;;;;;;;;5086347;28;20199;-74
2020/12/21 11:42:45;;;;;;;5.97;2.67;;;;;;;;;;5088252;28;20643;-76
2020/12/21 11:45:11;;;;;;;6.00;3.13;;;;;;;;;;5087792;28;20229;-75
2020/12/21 11:47:38;;;;;;;8.32;3.25;;;;;;;;;;5091443;28;20179;-77
2020/12/21 11:50:05;;;;;;;6.97;3.20;;;;;;;;;;5074294;28;20324;-76
2020/12/21 11:52:31;;;;;;;6.83;3.27;;;;;;;;;;5079942;28;20477;-75
2020/12/21 11:54:58;;;;;;;5.47;2.80;;;;;;;;;;5080352;28;20458;-76
2020/12/21 11:57:26;;;;;;;6.40;2.58;;;;;;;;;;5084778;28;20478;-75
2020/12/21 11:59:52;;;;;;;6.10;3.00;;;;;;;;;;5092225;28;20205;-76
2020/12/21 12:02:18;;;;;;;4.03;2.60;;;;;;;;;;5089700;28;20430;-78
2020/12/21 12:04:45;;;;;;;5.53;2.60;;;;;;;;;;5091530;28;20962;-75
2020/12/21 12:07:11;;;;;;;5.50;3.90;;;;;;;;;;5080204;28;20442;-77
2020/12/21 12:09:37;;;;;;;5.23;2.83;;;;;;;;;;5082794;28;20550;-72
2020/12/21 12:12:03;;;;;;;3.97;2.53;;;;;;;;;;5091882;28;20958;-74
2020/12/21 12:14:29;;;;;;;7.23;2.83;;;;;;;;;;5086354;28;20422;-75
2020/12/21 12:16:55;;;;;;;4.73;2.97;;;;;;;;;;5082584;28;20472;-73
2020/12/21 12:19:22;;;;;;;10.90;3.88;;;;;;;;;;5092472;28;20453;-75
2020/12/21 12:21:49;;;;;;;4.25;2.60;;;;;;;;;;5079782;28;20196;-76
2020/12/21 12:24:15;;;;;;;7.68;3.40;;;;;;;;;;5085200;28;20697;-76
2020/12/21 12:26:42;;;;;;;5.10;2.85;;;;;;;;;;5091662;28;20186;-75
2020/12/21 12:29:08;;;;;;;7.40;3.50;;;;;;;;;;5086428;28;20597;-75
2020/12/21 12:31:34;;;;;;;5.20;3.63;;;;;;;;;;5071895;28;20203;-74
2020/12/21 12:34:00;;;;;;;9.02;4.30;;;;;;;;;;5071433;28;20180;-74
2020/12/21 12:36:27;;;;;;;5.60;3.00;;;;;;;;;;5071543;28;20168;-74
2020/12/21 12:38:54;;;;;;;4.43;2.50;;;;;;;;;;5071557;28;20207;-74
2020/12/21 12:41:20;;;;;;;7.30;3.65;;;;;;;;;;5077595;28;20766;-78
2020/12/21 12:43:46;;;;;;;5.30;2.70;;;;;;;;;;5086024;28;20640;-75
2020/12/21 12:46:12;;;;;;;7.20;3.05;;;;;;;;;;5074356;28;20236;-74
2020/12/21 12:48:39;;;;;;;6.63;2.75;;;;;;;;;;5072273;28;20219;-76
2020/12/21 12:51:05;;;;;;;5.10;2.67;;;;;;;;;;5088696;28;20603;-76
2020/12/21 12:53:31;;;;;;;7.65;2.90;;;;;;;;;;5071993;28;20215;-76
2020/12/21 12:55:57;;;;;;;4.90;2.63;;;;;;;;;;5074765;28;20180;-77
2020/12/21 12:58:24;;;;;;;7.55;3.60;;;;;;;;;;5068529;28;20735;-75
2020/12/21 13:00:50;;;;;;;4.85;2.60;;;;;;;;;;5072383;28;20561;-74
2020/12/21 13:03:16;;;;;;;6.15;3.25;;;;;;;;;;5074314;28;20295;-78
2020/12/21 13:05:45;;;;;;;5.38;3.50;;;;;;;;;;5081018;28;20196;-76
2020/12/21 13:08:11;;;;;;;7.57;3.00;;;;;;;;;;5090999;28;20652;-76
2020/12/21 13:10:37;;;;;;;5.50;3.28;;;;;;;;;;5080395;28;20222;-74
2020/12/21 13:13:03;;;;;;;4.35;2.90;;;;;;;;;;5089264;28;20187;-75
2020/12/21 13:15:29;;;;;;;4.85;3.40;;;;;;;;;;5083637;28;20179;-76
2020/12/21 13:17:55;;;;;;;7.72;3.00;;;;;;;;;;5090402;28;20182;-75
2020/12/21 13:20:21;;;;;;;8.38;3.20;;;;;;;;;;5090191;28;20288;-74
2020/12/21 13:22:47;;;;;;;4.35;2.60;;;;;;;;;;5089649;28;20559;-75
2020/12/21 13:25:14;;;;;;;9.15;3.47;;;;;;;;;;5090617;28;20172;-74
2020/12/21 13:27:40;;;;;;;5.85;3.20;;;;;;;;;;5084362;28;20305;-72
2020/12/21 13:30:06;;;;;;;7.10;4.10;;;;;;;;;;5081659;28;20206;-77
2020/12/21 13:32:32;;;;;;;5.00;3.20;;;;;;;;;;5082129;28;20211;-77
2020/12/21 13:34:58;;;;;;;6.20;3.22;;;;;;;;;;5089845;28;20220;-74
2020/12/21 13:37:24;;;;;;;6.22;4.20;;;;;;;;;;5083912;28;20255;-75
2020/12/21 13:39:50;;;;;;;6.07;3.80;;;;;;;;;;5085879;28;20203;-77
2020/12/21 13:42:16;;;;;;;5.38;3.38;;;;;;;;;;5085681;28;20254;-76
2020/12/21 13:44:42;;;;;;;6.45;4.45;;;;;;;;;;5090041;28;20250;-76
2020/12/21 13:47:09;;;;;;;9.65;4.45;;;;;;;;;;5085601;28;20192;-73
2020/12/21 13:49:35;;;;;;;7.10;4.13;;;;;;;;;;5076994;28;20203;-74
2020/12/21 13:52:01;;;;;;;10.15;4.28;;;;;;;;;;5087289;28;20207;-76
2020/12/21 13:54:27;;;;;;;5.28;3.60;;;;;;;;;;5084060;28;20180;-75
2020/12/21 13:56:53;;;;;;;4.30;3.65;;;;;;;;;;5087510;28;20211;-75
2020/12/21 13:59:19;;;;;;;6.45;3.55;;;;;;;;;;5085443;28;20195;-75
2020/12/21 14:01:45;;;;;;;9.45;3.80;;;;;;;;;;5076233;28;20190;-76
2020/12/21 14:04:11;;;;;;;6.85;2.95;;;;;;;;;;5089800;28;20180;-76
2020/12/21 14:06:37;;;;;;;10.15;3.20;;;;;;;;;;5089531;28;20180;-75
2020/12/21 14:09:03;;;;;;;6.88;3.28;;;;;;;;;;5090322;28;20294;-74
2020/12/21 14:11:31;;;;;;;6.55;3.30;;;;;;;;;;5082281;28;20234;-74
2020/12/21 14:13:57;;;;;;;10.40;3.70;;;;;;;;;;5089448;28;20258;-74
2020/12/21 14:16:23;;;;;;;7.60;3.63;;;;;;;;;;5080403;28;20179;-74
2020/12/21 14:18:51;;;;;;;7.53;3.72;;;;;;;;;;5085211;28;20178;-74
2020/12/21 14:21:18;;;;;;;7.75;4.80;;;;;;;;;;5082218;28;20187;-76
2020/12/21 14:23:44;;;;;;;4.32;3.58;;;;;;;;;;5087751;28;20186;-75
2020/12/21 14:26:10;;;;;;;4.60;3.35;;;;;;;;;;5086658;28;20552;-76
2020/12/21 14:28:37;;;;;;;6.38;4.45;;;;;;;;;;5089491;28;20274;-75